createdAt,value
2022-11-20T00:07:00.621Z,11
2022-11-20T00:22:02.540Z,8.8
2022-11-20T00:37:04.630Z,55
2022-11-20T00:52:06.534Z,52.8
2022-11-20T01:07:08.502Z,48.4
2022-11-20T01:22:10.474Z,46.2
2022-11-20T01:37:12.370Z,46.2
2022-11-20T01:52:14.272Z,2.2
2022-11-20T02:07:16.228Z,2.2
2022-11-20T02:22:18.128Z,2.2
2022-11-20T02:37:20.019Z,2.2
2022-11-20T02:52:21.938Z,2.2
2022-11-20T03:07:23.930Z,2.2
2022-11-20T03:22:25.849Z,2.2
2022-11-20T03:37:27.775Z,2.2
2022-11-20T03:52:29.686Z,2.2
2022-11-20T04:07:31.616Z,2.2
2022-11-20T04:22:33.555Z,2.2
2022-11-20T04:37:35.488Z,2.2
2022-11-20T04:52:37.388Z,2.2
2022-11-20T05:07:39.338Z,2.2
2022-11-20T05:22:41.277Z,2.2
2022-11-20T05:37:43.209Z,2.2
2022-11-20T05:52:45.158Z,2.2
2022-11-20T06:07:47.169Z,2.2
2022-11-20T06:22:49.061Z,2.2
2022-11-20T06:37:50.991Z,2.2
2022-11-20T06:52:52.885Z,2.2
2022-11-20T07:07:54.774Z,2.2
2022-11-20T07:22:56.649Z,2.2
2022-11-20T07:37:58.560Z,0
2022-11-20T07:53:00.469Z,0
2022-11-20T08:08:02.369Z,0
2022-11-20T08:23:04.313Z,0
2022-11-20T08:38:06.277Z,0
2022-11-20T08:53:08.204Z,0
2022-11-20T09:08:10.165Z,0
2022-11-20T09:23:12.072Z,0
2022-11-20T09:38:13.996Z,0
2022-11-20T09:53:15.893Z,0
2022-11-20T10:08:17.959Z,0
2022-11-20T10:23:25.433Z,0
2022-11-20T10:38:27.781Z,0
2022-11-20T10:53:29.697Z,0
2022-11-20T11:08:31.651Z,0
2022-11-20T11:23:33.545Z,0
2022-11-20T11:38:35.560Z,0
2022-11-20T11:53:37.438Z,0
2022-11-20T12:08:39.437Z,0
2022-11-20T12:23:41.398Z,0
2022-11-20T12:38:43.342Z,0
2022-11-20T12:53:45.283Z,0
2022-11-20T13:08:47.094Z,0
2022-11-20T13:23:48.918Z,0
2022-11-20T13:38:50.777Z,0
2022-11-20T13:53:52.617Z,0
2022-11-20T14:08:54.653Z,0
2022-11-20T14:23:56.561Z,0
2022-11-20T14:38:58.495Z,0
2022-11-20T14:54:00.387Z,2.2
2022-11-20T15:09:02.298Z,2.2
2022-11-20T15:24:04.202Z,6.6
2022-11-20T15:39:06.153Z,15.4
2022-11-20T15:54:08.108Z,26.4
2022-11-20T16:09:10.049Z,24.2
2022-11-20T16:24:11.977Z,28.6
2022-11-20T16:39:15.829Z,39.6
2022-11-20T16:54:21.624Z,41.8
2022-11-20T17:09:23.619Z,41.8
2022-11-20T17:24:27.806Z,74.8
2022-11-20T17:39:33.463Z,66
2022-11-20T17:54:35.360Z,74.8
2022-11-20T18:09:37.226Z,79.2
2022-11-20T18:24:39.143Z,66
2022-11-20T18:39:41.023Z,72.6
2022-11-20T18:54:42.927Z,79.2
2022-11-20T19:09:44.845Z,88
2022-11-20T19:24:46.788Z,99
2022-11-20T19:39:48.697Z,114.4
2022-11-20T19:54:50.699Z,125.4
2022-11-20T20:09:52.631Z,105.6
2022-11-20T20:24:54.578Z,94.6
2022-11-20T20:39:56.488Z,77
2022-11-20T20:54:58.422Z,92.4
2022-11-20T21:10:00.305Z,88
2022-11-20T21:25:02.232Z,79.2
2022-11-20T21:40:04.119Z,83.6
2022-11-20T21:55:06.051Z,66
2022-11-20T22:10:07.953Z,44
2022-11-20T22:25:10.036Z,39.6
2022-11-20T22:40:11.947Z,33
2022-11-20T22:55:16.389Z,30.8
2022-11-20T23:10:18.549Z,22
2022-11-20T23:25:20.431Z,15.4
2022-11-20T23:40:22.459Z,6.6
2022-11-20T23:55:24.401Z,4.4
